createdAt,value
2019-05-20T00:01:42.437Z,56.63
2019-05-20T00:04:13.672Z,57.03
2019-05-20T00:06:42.137Z,55.67
2019-05-20T00:09:11.423Z,57.57
2019-05-20T00:11:41.455Z,58.50
2019-05-20T00:14:12.922Z,55.43
2019-05-20T00:16:41.474Z,56.70
2019-05-20T00:19:10.044Z,58.47
2019-05-20T00:21:38.565Z,62.83
2019-05-20T00:24:08.665Z,57.77
2019-05-20T00:26:37.286Z,65.60
2019-05-20T00:29:05.758Z,60.93
2019-05-20T00:31:34.269Z,57.97
2019-05-20T00:34:07.927Z,57.00
2019-05-20T00:36:36.394Z,59.47
2019-05-20T00:39:20.362Z,57.15
2019-05-20T00:41:49.275Z,53.08
2019-05-20T00:44:18.858Z,53.67
2019-05-20T00:46:48.399Z,53.63
2019-05-20T00:49:17.815Z,58.50
2019-05-20T00:51:47.910Z,55.20
2019-05-20T00:54:19.242Z,53.73
2019-05-20T00:56:50.108Z,58.43
2019-05-20T00:59:18.747Z,57.73
2019-05-20T01:01:47.306Z,55.47
2019-05-20T01:04:17.448Z,55.77
2019-05-20T01:06:50.369Z,60.63
2019-05-20T01:09:20.069Z,55.60
2019-05-20T01:11:49.996Z,54.30
2019-05-20T01:14:18.834Z,52.70
2019-05-20T01:16:49.779Z,55.33
2019-05-20T01:19:18.242Z,47.90
2019-05-20T01:21:53.634Z,50.90
2019-05-20T01:24:26.177Z,54.20
2019-05-20T01:26:57.485Z,53.58
2019-05-20T01:29:29.031Z,50.17
2019-05-20T01:31:57.509Z,48.23
2019-05-20T01:34:26.030Z,49.63
2019-05-20T01:36:56.787Z,47.40
2019-05-20T01:39:25.327Z,50.77
2019-05-20T01:41:53.910Z,47.60
2019-05-20T01:44:22.415Z,49.33
2019-05-20T01:46:52.415Z,51.02
2019-05-20T01:49:21.766Z,48.55
2019-05-20T01:51:53.520Z,49.37
2019-05-20T01:54:22.294Z,46.83
2019-05-20T01:56:50.736Z,42.33
2019-05-20T01:59:19.467Z,42.67
2019-05-20T02:01:49.751Z,45.93
2019-05-20T02:04:23.756Z,44.20
2019-05-20T02:06:52.332Z,43.90
2019-05-20T02:09:21.915Z,42.13
2019-05-20T02:11:50.395Z,43.83
2019-05-20T02:14:24.451Z,42.73
2019-05-20T02:16:52.993Z,41.83
2019-05-20T02:19:23.009Z,36.93
2019-05-20T02:21:52.790Z,39.27
2019-05-20T02:24:22.900Z,40.80
2019-05-20T02:26:51.367Z,40.70
2019-05-20T02:29:19.903Z,40.77
2019-05-20T02:31:48.380Z,41.20
2019-05-20T02:34:19.944Z,41.30
2019-05-20T02:36:48.558Z,42.80
2019-05-20T02:39:17.026Z,41.60
2019-05-20T02:41:45.477Z,42.20
2019-05-20T02:44:16.396Z,39.23
2019-05-20T02:46:46.368Z,45.27
2019-05-20T02:49:17.827Z,42.93
2019-05-20T02:51:47.627Z,45.80
2019-05-20T02:54:16.309Z,40.73
2019-05-20T02:56:44.795Z,45.97
2019-05-20T02:59:17.622Z,43.90
2019-05-20T03:01:46.189Z,46.37
2019-05-20T03:04:14.785Z,43.80
2019-05-20T03:06:43.483Z,43.90
2019-05-20T03:09:15.170Z,44.63
2019-05-20T03:11:46.833Z,43.50
2019-05-20T03:14:15.370Z,41.60
2019-05-20T03:16:44.947Z,41.53
2019-05-20T03:19:20.639Z,41.27
2019-05-20T03:21:46.912Z,37.43
2019-05-20T03:24:18.158Z,35.63
2019-05-20T03:26:47.649Z,40.57
2019-05-20T03:29:17.656Z,35.40
2019-05-20T03:31:46.221Z,32.87
2019-05-20T03:34:41.784Z,36.13
2019-05-20T03:36:46.546Z,38.00
2019-05-20T03:39:16.308Z,35.47
2019-05-20T03:41:44.987Z,34.60
2019-05-20T03:44:18.710Z,38.60
2019-05-20T03:46:48.527Z,37.50
2019-05-20T03:49:17.145Z,32.40
2019-05-20T03:51:52.610Z,37.03
2019-05-20T03:54:20.697Z,34.40
2019-05-20T03:56:51.929Z,37.03
2019-05-20T03:59:20.395Z,39.67
2019-05-20T04:01:50.034Z,40.17
2019-05-20T04:04:18.784Z,38.48
2019-05-20T04:06:47.244Z,37.70
2019-05-20T04:09:17.201Z,36.67
2019-05-20T04:11:45.747Z,37.63
2019-05-20T04:14:14.496Z,37.37
2019-05-20T04:16:43.059Z,36.77
2019-05-20T04:19:12.003Z,37.37
2019-05-20T04:21:43.505Z,39.07
2019-05-20T04:24:12.320Z,38.70
2019-05-20T04:26:42.595Z,36.47
2019-05-20T04:29:13.805Z,38.90
2019-05-20T04:31:42.391Z,40.70
2019-05-20T04:34:11.061Z,41.42
2019-05-20T04:36:44.021Z,38.60
2019-05-20T04:39:16.385Z,36.60
2019-05-20T04:41:46.415Z,36.07
2019-05-20T04:44:15.929Z,37.63
2019-05-20T04:46:48.619Z,39.40
2019-05-20T04:49:16.844Z,39.15
2019-05-20T04:51:50.088Z,39.13
2019-05-20T04:54:20.500Z,36.63
2019-05-20T04:56:49.917Z,38.67
2019-05-20T04:59:18.596Z,39.00
2019-05-20T05:01:48.288Z,39.33
2019-05-20T05:04:16.755Z,38.27
2019-05-20T05:06:45.812Z,41.43
2019-05-20T05:09:15.831Z,40.70
2019-05-20T05:11:44.510Z,43.07
2019-05-20T05:14:32.558Z,44.80
2019-05-20T05:17:01.193Z,44.53
2019-05-20T05:19:31.778Z,43.42
2019-05-20T05:22:01.482Z,43.07
2019-05-20T05:24:30.230Z,40.97
2019-05-20T05:27:01.915Z,47.33
2019-05-20T05:29:30.538Z,52.23
2019-05-20T05:32:01.130Z,50.57
2019-05-20T05:34:29.605Z,48.17
2019-05-20T05:37:03.663Z,50.83
2019-05-20T05:39:35.745Z,50.13
2019-05-20T05:42:08.729Z,51.15
2019-05-20T05:44:38.931Z,45.67
2019-05-20T05:47:10.455Z,47.20
2019-05-20T05:49:38.951Z,46.93
2019-05-20T05:52:07.559Z,43.63
2019-05-20T05:54:38.511Z,44.57
2019-05-20T05:57:07.554Z,44.43
2019-05-20T05:59:36.212Z,44.40
2019-05-20T06:02:06.457Z,48.13
2019-05-20T06:04:34.919Z,48.20
2019-05-20T06:07:07.627Z,48.53
2019-05-20T06:09:36.367Z,50.83
2019-05-20T06:12:08.212Z,50.63
2019-05-20T06:14:36.854Z,49.33
2019-05-20T06:17:06.608Z,44.17
2019-05-20T06:19:35.747Z,45.97
2019-05-20T06:22:04.501Z,43.80
2019-05-20T06:24:33.025Z,46.33
2019-05-20T06:27:03.115Z,44.00
2019-05-20T06:29:31.721Z,45.53
2019-05-20T06:32:00.223Z,46.30
2019-05-20T06:34:28.846Z,43.40
2019-05-20T06:37:03.989Z,47.83
2019-05-20T06:39:34.178Z,47.60
2019-05-20T06:42:02.722Z,49.33
2019-05-20T06:44:31.179Z,47.87
2019-05-20T06:47:01.323Z,53.83
2019-05-20T06:49:29.787Z,52.10
2019-05-20T06:52:00.860Z,56.10
2019-05-20T06:54:29.610Z,63.23
2019-05-20T06:57:00.841Z,57.47
2019-05-20T06:59:29.303Z,49.60
2019-05-20T07:01:57.873Z,51.57
2019-05-20T07:04:26.460Z,52.08
2019-05-20T07:06:57.289Z,52.33
2019-05-20T07:09:28.565Z,55.37
2019-05-20T07:11:58.135Z,57.50
2019-05-20T07:14:26.603Z,51.97
2019-05-20T07:16:58.485Z,50.80
2019-05-20T07:19:26.954Z,47.70
2019-05-20T07:21:57.085Z,44.70
2019-05-20T07:24:28.756Z,47.90
2019-05-20T07:26:58.976Z,47.63
2019-05-20T07:29:28.454Z,43.33
2019-05-20T07:31:58.101Z,39.53
2019-05-20T07:34:27.725Z,43.95
2019-05-20T07:37:08.047Z,43.00
2019-05-20T07:39:27.922Z,39.87
2019-05-20T07:41:59.031Z,37.77
2019-05-20T07:44:27.495Z,34.37
2019-05-20T07:46:56.407Z,34.77
2019-05-20T07:49:25.860Z,35.47
2019-05-20T07:51:55.170Z,34.00
2019-05-20T07:54:24.174Z,31.57
2019-05-20T07:56:54.682Z,30.90
2019-05-20T07:59:26.424Z,33.97
2019-05-20T08:01:55.024Z,35.30
2019-05-20T08:04:23.766Z,34.77
2019-05-20T08:06:53.727Z,32.93
2019-05-20T08:09:22.206Z,35.90
2019-05-20T08:11:51.679Z,37.17
2019-05-20T08:14:20.143Z,37.10
2019-05-20T08:16:48.709Z,37.37
2019-05-20T08:19:17.341Z,38.23
2019-05-20T08:21:47.774Z,41.73
2019-05-20T08:24:16.678Z,37.13
2019-05-20T08:26:45.487Z,36.53
2019-05-20T08:29:14.030Z,36.03
2019-05-20T08:31:45.199Z,37.67
2019-05-20T08:34:13.795Z,34.83
2019-05-20T08:36:42.337Z,38.07
2019-05-20T08:39:13.658Z,40.00
2019-05-20T08:41:42.254Z,38.60
2019-05-20T08:44:11.035Z,41.17
2019-05-20T08:46:42.903Z,40.23
2019-05-20T08:49:11.926Z,38.73
2019-05-20T08:51:41.851Z,39.67
2019-05-20T08:54:10.401Z,39.63
2019-05-20T08:56:40.921Z,42.47
2019-05-20T08:59:09.469Z,43.63
2019-05-20T09:01:41.328Z,39.17
2019-05-20T09:04:09.794Z,38.57
2019-05-20T09:06:39.860Z,40.97
2019-05-20T09:09:11.959Z,43.00
2019-05-20T09:11:38.572Z,36.93
2019-05-20T09:14:13.875Z,40.73
2019-05-20T09:16:42.434Z,43.67
2019-05-20T09:19:13.761Z,37.30
2019-05-20T09:21:44.997Z,43.77
2019-05-20T09:24:13.624Z,41.33
2019-05-20T09:26:45.318Z,42.70
2019-05-20T09:29:13.789Z,42.30
2019-05-20T09:31:42.397Z,42.77
2019-05-20T09:34:12.075Z,46.33
2019-05-20T09:36:43.531Z,47.73
2019-05-20T09:39:12.035Z,44.07
2019-05-20T09:41:41.638Z,45.97
2019-05-20T09:44:10.502Z,44.63
2019-05-20T09:46:41.683Z,39.83
2019-05-20T09:49:10.233Z,41.40
2019-05-20T09:51:41.247Z,41.93
2019-05-20T09:54:10.978Z,42.33
2019-05-20T09:56:43.168Z,40.23
2019-05-20T10:01:42.336Z,36.20
2019-05-20T10:04:13.570Z,35.95
2019-05-20T10:06:42.060Z,35.07
2019-05-20T10:09:11.021Z,38.57
2019-05-20T10:11:39.615Z,36.43
2019-05-20T10:14:08.203Z,40.80
2019-05-20T10:16:36.580Z,36.73
2019-05-20T10:19:05.186Z,43.97
2019-05-20T10:21:34.681Z,38.93
2019-05-20T10:24:05.175Z,40.67
2019-05-20T10:26:34.604Z,39.30
2019-05-20T10:29:03.212Z,38.97
2019-05-20T10:31:33.294Z,36.77
2019-05-20T10:34:02.015Z,36.57
2019-05-20T10:36:30.591Z,35.57
2019-05-20T10:38:59.682Z,33.50
2019-05-20T10:41:29.852Z,32.30
2019-05-20T10:43:58.558Z,32.40
2019-05-20T10:46:29.972Z,32.60
2019-05-20T10:48:58.538Z,30.97
2019-05-20T10:51:27.151Z,30.73
2019-05-20T10:53:59.691Z,35.37
2019-05-20T10:56:30.373Z,35.80
2019-05-20T10:59:00.422Z,35.03
2019-05-20T11:01:34.470Z,32.75
2019-05-20T11:04:03.080Z,35.85
2019-05-20T11:06:38.789Z,35.77
2019-05-20T11:09:13.961Z,38.67
2019-05-20T11:11:39.508Z,38.63
2019-05-20T11:14:08.071Z,43.53
2019-05-20T11:16:36.606Z,42.83
2019-05-20T11:19:06.694Z,43.50
2019-05-20T11:21:37.801Z,46.20
2019-05-20T11:24:06.473Z,51.80
2019-05-20T11:26:38.262Z,57.03
2019-05-20T11:29:08.337Z,54.57
2019-05-20T11:31:38.311Z,56.17
2019-05-20T11:34:06.992Z,55.07
2019-05-20T11:36:38.117Z,57.87
2019-05-20T11:39:09.004Z,55.10
2019-05-20T11:41:52.618Z,54.53
2019-05-20T11:44:11.952Z,59.80
2019-05-20T11:46:39.243Z,53.58
2019-05-20T11:49:09.196Z,53.67
2019-05-20T11:51:37.709Z,51.70
2019-05-20T11:54:08.683Z,50.00
2019-05-20T11:56:41.086Z,46.70
2019-05-20T11:59:09.648Z,47.37
2019-05-20T12:01:38.282Z,47.65
2019-05-20T12:04:06.915Z,52.17
2019-05-20T12:06:36.384Z,51.37
2019-05-20T12:09:06.797Z,48.87
2019-05-20T12:11:35.415Z,49.45
2019-05-20T12:14:04.063Z,43.97
2019-05-20T12:16:35.602Z,48.68
2019-05-20T12:19:04.069Z,40.30
2019-05-20T12:21:33.125Z,42.43
2019-05-20T12:24:03.209Z,45.17
2019-05-20T12:26:40.646Z,42.33
2019-05-20T12:29:09.277Z,38.40
2019-05-20T12:31:39.682Z,40.40
2019-05-20T12:34:09.471Z,37.10
2019-05-20T12:36:38.025Z,38.58
2019-05-20T12:39:08.689Z,37.20
2019-05-20T12:41:37.300Z,39.20
2019-05-20T12:44:12.236Z,35.27
2019-05-20T12:46:42.723Z,35.00
2019-05-20T12:49:11.344Z,36.50
2019-05-20T12:51:40.859Z,36.33
2019-05-20T12:54:10.734Z,35.23
2019-05-20T12:56:42.077Z,32.73
2019-05-20T12:59:11.813Z,32.33
2019-05-20T13:01:40.611Z,37.83
2019-05-20T13:04:09.330Z,32.23
2019-05-20T13:06:37.880Z,32.87
2019-05-20T13:09:07.890Z,33.67
2019-05-20T13:11:37.778Z,31.67
2019-05-20T13:14:10.080Z,31.63
2019-05-20T13:16:38.592Z,31.90
2019-05-20T13:19:09.396Z,29.50
2019-05-20T13:21:37.933Z,27.93
2019-05-20T13:24:08.968Z,30.83
2019-05-20T13:26:37.501Z,27.47
2019-05-20T13:29:05.992Z,30.53
2019-05-20T13:31:34.471Z,30.00
2019-05-20T13:34:05.569Z,29.20
2019-05-20T13:36:34.475Z,30.43
2019-05-20T13:39:06.957Z,31.12
2019-05-20T13:41:39.921Z,30.30
2019-05-20T13:44:08.487Z,29.33
2019-05-20T13:46:38.023Z,29.57
2019-05-20T13:49:07.137Z,29.90
2019-05-20T13:51:38.930Z,27.73
2019-05-20T13:54:10.543Z,27.98
2019-05-20T13:56:39.887Z,28.50
2019-05-20T13:59:08.481Z,28.90
2019-05-20T14:01:37.626Z,31.23
2019-05-20T14:04:07.918Z,33.53
2019-05-20T14:06:36.387Z,32.83
2019-05-20T14:09:08.035Z,34.83
2019-05-20T14:11:36.607Z,36.37
2019-05-20T14:14:07.936Z,38.02
2019-05-20T14:16:38.587Z,34.97
2019-05-20T14:19:07.079Z,31.93
2019-05-20T14:21:35.633Z,35.73
2019-05-20T14:24:05.040Z,36.67
2019-05-20T14:26:33.663Z,37.20
2019-05-20T14:29:03.279Z,39.58
2019-05-20T14:31:36.037Z,39.83
2019-05-20T14:34:04.993Z,37.57
2019-05-20T14:36:39.810Z,36.20
2019-05-20T14:39:06.496Z,36.70
2019-05-20T14:41:36.670Z,40.70
2019-05-20T14:44:05.516Z,39.23
2019-05-20T14:46:35.029Z,39.90
2019-05-20T14:49:03.666Z,39.73
2019-05-20T14:51:32.169Z,34.17
2019-05-20T14:54:00.936Z,37.47
2019-05-20T14:56:33.194Z,34.83
2019-05-20T14:59:01.656Z,35.37
2019-05-20T15:01:31.196Z,38.23
2019-05-20T15:03:59.784Z,32.40
2019-05-20T15:06:29.787Z,33.97
2019-05-20T15:08:58.332Z,28.55
2019-05-20T15:11:37.724Z,29.80
2019-05-20T15:14:00.189Z,30.20
2019-05-20T15:16:27.730Z,27.23
2019-05-20T15:18:56.439Z,28.10
2019-05-20T15:21:29.440Z,28.00
2019-05-20T15:23:56.910Z,25.23
2019-05-20T15:26:25.461Z,24.27
2019-05-20T15:28:53.940Z,24.30
2019-05-20T15:31:22.475Z,27.50
2019-05-20T15:33:52.144Z,26.17
2019-05-20T15:36:23.580Z,27.10
2019-05-20T15:38:53.369Z,30.00
2019-05-20T15:41:21.896Z,25.68
2019-05-20T15:43:50.401Z,28.33
2019-05-20T15:46:20.070Z,26.73
2019-05-20T15:48:48.606Z,29.33
2019-05-20T15:51:17.124Z,27.70
2019-05-20T15:53:45.810Z,27.67
2019-05-20T15:56:14.268Z,27.93
2019-05-20T15:58:42.757Z,29.10
2019-05-20T16:01:11.291Z,30.83
2019-05-20T16:03:39.836Z,31.77
2019-05-20T16:06:09.506Z,30.00
2019-05-20T16:08:46.821Z,35.20
2019-05-20T16:11:15.370Z,31.97
2019-05-20T16:13:48.096Z,33.87
2019-05-20T16:16:20.299Z,39.50
2019-05-20T16:18:49.042Z,33.63
2019-05-20T16:21:18.513Z,32.13
2019-05-20T16:23:48.456Z,37.07
2019-05-20T16:26:21.010Z,37.37
2019-05-20T16:28:49.523Z,33.67
2019-05-20T16:31:18.569Z,34.10
2019-05-20T16:33:48.478Z,34.70
2019-05-20T16:36:19.459Z,36.73
2019-05-20T16:38:50.208Z,34.67
2019-05-20T16:41:18.812Z,35.63
2019-05-20T16:43:49.013Z,35.87
2019-05-20T16:46:19.116Z,38.07
2019-05-20T16:48:50.128Z,33.60
2019-05-20T16:51:22.006Z,38.47
2019-05-20T16:53:50.062Z,39.20
2019-05-20T16:56:18.883Z,38.27
2019-05-20T16:58:49.169Z,36.75
2019-05-20T17:01:18.890Z,35.20
2019-05-20T17:03:49.846Z,39.47
2019-05-20T17:06:21.524Z,41.73
2019-05-20T17:08:50.195Z,35.48
2019-05-20T17:11:18.841Z,34.97
2019-05-20T17:13:47.327Z,35.43
2019-05-20T17:16:17.267Z,38.20
2019-05-20T17:18:45.817Z,38.73
2019-05-20T17:21:14.473Z,36.90
2019-05-20T17:24:05.023Z,35.60
2019-05-20T17:26:33.511Z,38.27
2019-05-20T17:29:03.911Z,35.27
2019-05-20T17:31:32.481Z,36.40
2019-05-20T17:34:01.246Z,36.77
2019-05-20T17:36:29.812Z,37.03
2019-05-20T17:38:59.610Z,36.43
2019-05-20T17:41:28.170Z,37.47
2019-05-20T17:43:58.910Z,37.23
2019-05-20T17:46:27.453Z,33.60
2019-05-20T17:48:55.997Z,32.43
2019-05-20T17:51:25.264Z,31.85
2019-05-20T17:53:56.523Z,31.90
2019-05-20T17:56:25.145Z,31.67
2019-05-20T17:58:54.553Z,31.10
2019-05-20T18:01:23.126Z,38.20
2019-05-20T18:03:53.008Z,34.10
2019-05-20T18:06:21.559Z,38.57
2019-05-20T18:08:55.822Z,35.97
2019-05-20T18:11:24.504Z,31.90
2019-05-20T18:13:56.044Z,36.20
2019-05-20T18:16:24.527Z,36.83
2019-05-20T18:18:53.014Z,35.27
2019-05-20T18:21:22.213Z,32.20
2019-05-20T18:23:50.840Z,32.50
2019-05-20T18:26:21.096Z,34.75
2019-05-20T18:28:51.403Z,36.27
2019-05-20T18:31:32.484Z,37.80
2019-05-20T18:33:55.676Z,31.30
2019-05-20T18:36:25.831Z,31.20
2019-05-20T18:38:55.144Z,33.57
2019-05-20T18:41:24.972Z,35.17
2019-05-20T18:43:53.594Z,38.37
2019-05-20T18:46:22.123Z,36.43
2019-05-20T18:48:51.938Z,44.23
2019-05-20T18:51:22.257Z,34.90
2019-05-20T18:53:53.753Z,38.40
2019-05-20T18:56:22.230Z,40.87
2019-05-20T18:58:52.292Z,44.23
2019-05-20T19:01:20.865Z,44.95
2019-05-20T19:03:49.417Z,49.83
2019-05-20T19:06:19.150Z,43.73
2019-05-20T19:08:52.976Z,41.73
2019-05-20T19:11:24.268Z,46.13
2019-05-20T19:13:53.342Z,46.00
2019-05-20T19:16:23.390Z,44.17
2019-05-20T19:18:52.039Z,44.73
2019-05-20T19:21:23.267Z,44.20
2019-05-20T19:23:52.082Z,48.80
2019-05-20T19:26:24.820Z,41.57
2019-05-20T19:28:51.848Z,45.10
2019-05-20T19:31:20.448Z,42.50
2019-05-20T19:33:49.101Z,42.27
2019-05-20T19:36:18.997Z,44.55
2019-05-20T19:38:52.278Z,44.73
2019-05-20T19:41:20.761Z,49.30
2019-05-20T19:43:52.966Z,46.70
2019-05-20T19:46:25.849Z,44.07
2019-05-20T19:48:54.451Z,41.60
2019-05-20T19:51:22.961Z,41.77
2019-05-20T19:53:51.550Z,42.40
2019-05-20T19:56:21.710Z,39.87
2019-05-20T19:58:50.301Z,42.70
2019-05-20T20:01:18.891Z,41.23
2019-05-20T20:03:48.812Z,44.07
2019-05-20T20:06:21.001Z,44.25
2019-05-20T20:08:49.188Z,38.77
2019-05-20T20:11:17.727Z,36.57
2019-05-20T20:13:46.193Z,38.63
2019-05-20T20:16:18.041Z,38.73
2019-05-20T20:18:48.215Z,39.17
2019-05-20T20:21:19.575Z,37.33
2019-05-20T20:23:52.033Z,35.10
2019-05-20T20:26:21.195Z,34.97
2019-05-20T20:28:52.429Z,31.07
2019-05-20T20:31:21.005Z,40.40
2019-05-20T20:36:44.348Z,37.37
2019-05-20T20:39:15.298Z,34.47
2019-05-20T20:41:43.790Z,35.40
2019-05-20T20:44:18.749Z,38.73
2019-05-20T20:46:47.295Z,35.88
2019-05-20T20:49:15.822Z,39.53
2019-05-20T20:51:44.351Z,35.80
2019-05-20T20:54:15.568Z,34.07
2019-05-20T20:56:45.860Z,35.00
2019-05-20T20:59:16.216Z,31.20
2019-05-20T21:01:48.690Z,32.37
2019-05-20T21:04:17.542Z,29.30
2019-05-20T21:06:47.470Z,31.83
2019-05-20T21:09:20.573Z,30.70
2019-05-20T21:11:50.529Z,32.35
2019-05-20T21:14:20.291Z,35.40
2019-05-20T21:16:49.357Z,33.90
2019-05-20T21:19:19.340Z,30.60
2019-05-20T21:21:49.547Z,39.43
2019-05-20T21:24:18.012Z,38.50
2019-05-20T21:26:47.599Z,39.87
2019-05-20T21:29:16.324Z,37.40
2019-05-20T21:31:44.950Z,41.40
2019-05-20T21:34:18.689Z,39.73
2019-05-20T21:36:50.133Z,33.88
2019-05-20T21:39:20.243Z,33.92
2019-05-20T21:41:48.704Z,32.90
2019-05-20T21:44:17.529Z,33.67
2019-05-20T21:46:50.910Z,35.57
2019-05-20T21:49:22.457Z,41.90
2019-05-20T21:51:52.009Z,37.70
2019-05-20T21:54:21.893Z,37.15
2019-05-20T21:56:53.737Z,35.43
2019-05-20T21:59:22.294Z,36.55
2019-05-20T22:01:52.962Z,30.17
2019-05-20T22:04:23.202Z,33.43
2019-05-20T22:06:51.845Z,38.80
2019-05-20T22:09:21.975Z,30.25
2019-05-20T22:11:52.148Z,34.13
2019-05-20T22:14:25.112Z,34.58
2019-05-20T22:16:53.948Z,37.53
2019-05-20T22:19:24.191Z,40.00
2019-05-20T22:21:54.534Z,39.67
2019-05-20T22:24:23.248Z,41.65
2019-05-20T22:26:51.735Z,43.43
2019-05-20T22:29:23.288Z,47.93
2019-05-20T22:31:52.801Z,41.60
2019-05-20T22:34:23.589Z,45.53
2019-05-20T22:36:52.265Z,46.13
2019-05-20T22:39:23.976Z,54.77
2019-05-20T22:41:56.702Z,50.33
2019-05-20T22:44:26.508Z,50.97
2019-05-20T22:46:56.349Z,46.23
2019-05-20T22:49:29.479Z,45.10
2019-05-20T22:51:58.233Z,50.07
2019-05-20T22:54:28.242Z,43.53
2019-05-20T22:56:57.734Z,47.03
2019-05-20T22:59:26.408Z,46.43
2019-05-20T23:01:54.951Z,42.50
2019-05-20T23:04:25.218Z,41.60
2019-05-20T23:06:55.044Z,46.40
2019-05-20T23:09:28.006Z,50.13
2019-05-20T23:11:59.377Z,46.60
2019-05-20T23:14:29.417Z,47.60
2019-05-20T23:17:00.138Z,48.27
2019-05-20T23:19:28.784Z,43.97
2019-05-20T23:21:59.594Z,52.90
2019-05-20T23:24:29.407Z,49.70
2019-05-20T23:26:59.647Z,48.97
2019-05-20T23:29:29.872Z,53.70
2019-05-20T23:31:58.412Z,54.30
2019-05-20T23:34:26.873Z,49.10
2019-05-20T23:36:58.887Z,54.10
2019-05-20T23:39:31.934Z,54.43
2019-05-20T23:42:00.457Z,56.00
2019-05-20T23:44:29.276Z,49.80
2019-05-20T23:46:57.737Z,52.73
2019-05-20T23:49:27.807Z,57.75
2019-05-20T23:51:58.851Z,49.43
2019-05-20T23:54:30.132Z,55.87
2019-05-20T23:56:58.621Z,57.33
2019-05-20T23:59:27.085Z,58.47
